»·PEaware :: EAL618 KRNO-KLAS

EAL618 :: KRNO-KLAS

FLIGHT INFORMATION

Flight Status: Arrived
Operator:
Eastern Air Lines
More flights by this operator :: More flights under this callsign
Pilot: Dave P. (45)
Aircraft: BOEING 737-800
(B738)
More flights by this aircraft type
Origin: KRNO Reno/Tahoe Intl
United States
Destination: KLAS McCarran Intl
United States
More flights between these airports :: More routes between these airports
Route: +ZEFFR6 PESKE LIDAT J92 BTY SUNST4
File this flight plan on PilotEdge
Remarks: callsign is "EASTERN"
Altitude:
(Current/Filed)
33,000ft
Speed:
(Current/Filed)
457kts
Departed: 12-Nov-20 01:20 PM
Arrived: 12-Nov-20 02:17 PM
Distance/Time
Traveled:
300nm/0:56
Distance/Time
To Go:
Arrived

Flight Plot

Page will automatically refresh every two minutes.

Flight plan parsing failed; only flown route is shown


Map Options




Map Legend


Flown Route
Filed Route
Departure Airport
Arrival Airport
Navaid (VOR, NDB)
Fix

Horizontal Profiles

Position Reports

Time Latitude Longitude Heading Altitude Ground
Speed
12-Nov-20 13:02 39.506532 -119.773293 0 4423ft 0kts
12-Nov-20 13:03 39.506532 -119.773293 0 4423ft 0kts
12-Nov-20 13:04 39.506532 -119.773293 0 4423ft 0kts
12-Nov-20 13:05 39.506532 -119.773293 0 4423ft 0kts
12-Nov-20 13:06 39.506532 -119.773293 0 4423ft 0kts
12-Nov-20 13:07 39.506532 -119.773293 0 4423ft 0kts
12-Nov-20 13:08 39.506532 -119.773293 0 4423ft 0kts
12-Nov-20 13:09 39.506392 -119.773305 6 4423ft 2kts
12-Nov-20 13:10 39.505941 -119.773574 95 4423ft 0kts
12-Nov-20 13:11 39.505941 -119.773574 95 4423ft 0kts
12-Nov-20 13:12 39.505942 -119.773427 87 4423ft 4kts
12-Nov-20 13:13 39.505892 -119.772362 90 4423ft 0kts
12-Nov-20 13:14 39.506573 -119.771480 0 4423ft 14kts
12-Nov-20 13:15 39.511810 -119.771475 359 4423ft 17kts
12-Nov-20 13:16 39.513778 -119.770410 93 4423ft 0kts
12-Nov-20 13:17 39.513778 -119.770408 93 4423ft 0kts
12-Nov-20 13:18 39.512035 -119.769222 180 4423ft 21kts
12-Nov-20 13:19 39.477911 -119.769440 179 5064ft 178kts
12-Nov-20 13:20 39.423564 -119.769325 179 7036ft 236kts
12-Nov-20 13:21 39.349391 -119.769630 180 9638ft 281kts
12-Nov-20 13:22 39.280415 -119.714238 133 11722ft 344kts
12-Nov-20 13:23 39.213470 -119.616079 133 14227ft 375kts
12-Nov-20 13:24 39.141622 -119.513824 136 16943ft 391kts
12-Nov-20 13:25 39.061256 -119.415284 138 19381ft 406kts
12-Nov-20 13:26 38.978469 -119.312740 137 21573ft 421kts
12-Nov-20 13:27 38.892610 -119.206662 138 23545ft 435kts
12-Nov-20 13:28 38.803707 -119.097528 138 25329ft 448kts
12-Nov-20 13:29 38.715041 -118.982452 134 26904ft 460kts
12-Nov-20 13:30 38.626749 -118.861648 135 28307ft 470kts
12-Nov-20 13:31 38.535844 -118.738881 135 29653ft 477kts
12-Nov-20 13:32 38.445290 -118.615823 136 31251ft 475kts
12-Nov-20 13:33 38.354394 -118.493573 137 32702ft 473kts
12-Nov-20 13:34 38.263142 -118.371457 138 33135ft 476kts
12-Nov-20 13:35 38.172297 -118.250370 138 33141ft 474kts
12-Nov-20 13:36 38.081110 -118.129291 138 33128ft 473kts
12-Nov-20 13:37 37.989944 -118.008696 138 33124ft 473kts
12-Nov-20 13:38 37.898850 -117.888652 138 33123ft 473kts
12-Nov-20 13:39 37.807368 -117.768553 139 33124ft 474kts
12-Nov-20 13:40 37.715802 -117.648794 139 33126ft 474kts
12-Nov-20 13:41 37.624386 -117.529255 139 33128ft 474kts
12-Nov-20 13:42 37.532445 -117.410032 140 33129ft 474kts
12-Nov-20 13:43 37.439808 -117.291592 144 33129ft 471kts
12-Nov-20 13:44 37.334761 -117.196884 153 33127ft 465kts
12-Nov-20 13:45 37.227398 -117.106429 153 33125ft 464kts
12-Nov-20 13:46 37.120421 -117.016070 153 33135ft 464kts
12-Nov-20 13:47 37.013106 -116.925269 154 33133ft 465kts
12-Nov-20 13:48 36.907009 -116.836441 154 32434ft 448kts
12-Nov-20 13:49 36.804085 -116.746861 146 29962ft 453kts
12-Nov-20 13:50 36.719158 -116.632036 137 28028ft 440kts
12-Nov-20 13:51 36.640945 -116.519897 136 25912ft 421kts
12-Nov-20 13:52 36.564644 -116.411617 135 24098ft 411kts
12-Nov-20 13:53 36.489967 -116.306269 135 22292ft 402kts
12-Nov-20 13:54 36.416716 -116.203170 135 20485ft 393kts
12-Nov-20 13:55 36.345438 -116.102522 135 18702ft 384kts
12-Nov-20 13:56 36.275173 -116.004333 135 16841ft 378kts
12-Nov-20 13:57 36.208653 -115.909638 128 16019ft 345kts
12-Nov-20 13:58 36.170370 -115.806367 114 15824ft 316kts
12-Nov-20 13:59 36.136877 -115.701887 114 14131ft 327kts
12-Nov-20 14:00 36.103956 -115.599535 113 13131ft 317kts
12-Nov-20 14:01 36.071385 -115.499058 114 12179ft 312kts
12-Nov-20 14:02 36.039609 -115.401583 113 11250ft 297kts
12-Nov-20 14:03 36.025718 -115.303308 95 10195ft 289kts
12-Nov-20 14:05 36.018785 -115.205834 96 9076ft 273kts
12-Nov-20 14:06 36.012751 -115.116866 95 8319ft 238kts
12-Nov-20 14:07 36.008044 -115.041560 94 8008ft 211kts
12-Nov-20 14:08 36.003739 -114.968881 95 8050ft 215kts
12-Nov-20 14:09 35.999222 -114.894907 95 8007ft 216kts
12-Nov-20 14:10 36.025956 -114.840451 14 7871ft 203kts
12-Nov-20 14:11 36.078960 -114.835211 325 7301ft 195kts
12-Nov-20 14:12 36.075308 -114.893811 245 6690ft 186kts
12-Nov-20 14:13 36.073575 -114.956303 269 5151ft 183kts
12-Nov-20 14:14 36.074081 -115.017626 270 3700ft 171kts
12-Nov-20 14:15 36.073664 -115.074534 269 2798ft 156kts
12-Nov-20 14:16 36.073661 -115.127642 271 2222ft 152kts
12-Nov-20 14:17 36.074151 -115.153863 294 2189ft 20kts
12-Nov-20 14:18 36.076760 -115.157903 315 2189ft 12kts
12-Nov-20 14:19 36.077385 -115.158244 356 2189ft 0kts
12-Nov-20 14:19 36.078042 -115.154897 89 2189ft 19kts
12-Nov-20 14:21 36.078149 -115.148241 42 2189ft 12kts
12-Nov-20 14:21 36.078321 -115.144164 94 2189ft 21kts
12-Nov-20 14:23 36.078271 -115.136586 89 2189ft 13kts
12-Nov-20 14:23 36.079911 -115.133756 7 2189ft 11kts
12-Nov-20 14:25 36.080769 -115.134840 242 2189ft 0kts
12-Nov-20 14:26 36.080769 -115.134840 242 2189ft 0kts
12-Nov-20 14:26 36.080769 -115.134840 242 2189ft 0kts
12-Nov-20 14:27 36.080769 -115.134840 242 2189ft 0kts
12-Nov-20 14:28 36.080769 -115.134840 242 2189ft 0kts
12-Nov-20 14:29 36.080769 -115.134840 242 2189ft 0kts
12-Nov-20 14:30 36.080769 -115.134840 242 2189ft 0kts

Navigation Log

Ident Type
Flight plan parsing failed, navigation log unavailable